createdAt,value
2023-05-25T00:01:13.390Z,94315.00
2023-05-25T00:03:43.706Z,94319.00
2023-05-25T00:06:10.943Z,94320.00
2023-05-25T00:08:42.542Z,94314.00
2023-05-25T00:11:09.396Z,94318.00
2023-05-25T00:13:36.266Z,94314.00
2023-05-25T00:16:06.387Z,94313.00
2023-05-25T00:18:38.046Z,94321.00
2023-05-25T00:21:08.434Z,94319.00
2023-05-25T00:23:35.436Z,94310.00
2023-05-25T00:26:06.330Z,94308.00
2023-05-25T00:28:38.067Z,94307.00
2023-05-25T00:31:05.100Z,94301.00
2023-05-25T00:33:32.127Z,94301.00
2023-05-25T00:36:00.220Z,94296.00
2023-05-25T00:38:27.135Z,94303.00
2023-05-25T00:40:59.390Z,94304.00
2023-05-25T00:43:26.339Z,94296.00
2023-05-25T00:45:54.084Z,94292.00
2023-05-25T00:48:20.984Z,94298.00
2023-05-25T00:50:48.120Z,94294.00
2023-05-25T00:53:19.691Z,94285.00
2023-05-25T00:55:52.327Z,94286.00
2023-05-25T00:58:24.897Z,94283.00
2023-05-25T01:00:56.290Z,94296.00
2023-05-25T01:03:36.173Z,94295.00
2023-05-25T01:06:08.785Z,94294.00
2023-05-25T01:08:37.428Z,94295.00
2023-05-25T01:11:08.368Z,94294.00
2023-05-25T01:13:38.264Z,94283.00
2023-05-25T01:16:14.050Z,94284.00
2023-05-25T01:18:41.960Z,94279.00
2023-05-25T01:21:23.248Z,94276.00
2023-05-25T01:24:05.937Z,94281.00
2023-05-25T01:29:03.471Z,94278.00
2023-05-25T01:31:30.740Z,94277.00
2023-05-25T01:34:02.592Z,94274.00
2023-05-25T01:36:29.636Z,94276.00
2023-05-25T01:38:56.726Z,94275.00
2023-05-25T01:41:23.618Z,94269.00
2023-05-25T01:43:56.004Z,94289.00
2023-05-25T01:46:39.267Z,94287.00
2023-05-25T01:49:23.523Z,94279.00
2023-05-25T01:52:33.432Z,94285.00
2023-05-25T01:55:11.030Z,94271.00
2023-05-25T01:57:42.651Z,94284.00
2023-05-25T02:00:13.717Z,94269.00
2023-05-25T02:02:46.034Z,94281.00
2023-05-25T02:05:15.657Z,94284.00
2023-05-25T02:07:42.636Z,94278.00
2023-05-25T02:10:14.538Z,94283.00
2023-05-25T02:12:41.491Z,94277.00
2023-05-25T02:15:15.691Z,94284.00
2023-05-25T02:17:44.933Z,94281.00
2023-05-25T02:20:12.751Z,94274.00
2023-05-25T02:22:39.741Z,94273.00
2023-05-25T02:25:09.066Z,94269.00
2023-05-25T02:27:38.741Z,94277.00
2023-05-25T02:30:07.849Z,94280.00
2023-05-25T02:32:37.567Z,94280.00
2023-05-25T02:35:07.513Z,94265.00
2023-05-25T02:37:36.678Z,94277.00
2023-05-25T02:40:05.173Z,94273.00
2023-05-25T02:42:34.372Z,94273.00
2023-05-25T02:45:01.282Z,94263.00
2023-05-25T02:47:30.638Z,94272.00
2023-05-25T02:49:59.664Z,94268.00
2023-05-25T02:52:26.529Z,94268.00
2023-05-25T02:54:53.530Z,94283.00
2023-05-25T02:57:23.335Z,94272.00
2023-05-25T02:59:54.952Z,94273.00
2023-05-25T03:02:25.566Z,94276.00
2023-05-25T03:04:53.895Z,94272.00
2023-05-25T03:07:25.506Z,94274.00
2023-05-25T03:09:52.906Z,94272.00
2023-05-25T03:12:19.919Z,94272.00
2023-05-25T03:14:49.322Z,94282.00
2023-05-25T03:17:16.275Z,94277.00
2023-05-25T03:19:45.663Z,94276.00
2023-05-25T03:22:12.549Z,94267.00
2023-05-25T03:24:42.040Z,94277.00
2023-05-25T03:27:09.106Z,94273.00
2023-05-25T03:29:36.068Z,94279.00
2023-05-25T03:32:03.189Z,94269.00
2023-05-25T03:34:30.260Z,94263.00
2023-05-25T03:36:57.165Z,94275.00
2023-05-25T03:39:24.112Z,94271.00
2023-05-25T03:41:53.601Z,94276.00
2023-05-25T03:44:20.530Z,94265.00
2023-05-25T03:46:47.424Z,94273.00
2023-05-25T03:49:14.466Z,94277.00
2023-05-25T03:51:42.814Z,94273.00
2023-05-25T03:54:09.780Z,94277.00
2023-05-25T03:56:36.706Z,94274.00
2023-05-25T03:59:05.906Z,94271.00
2023-05-25T04:01:38.178Z,94271.00
2023-05-25T04:04:06.611Z,94274.00
2023-05-25T04:06:36.983Z,94268.00
2023-05-25T04:09:05.004Z,94283.00
2023-05-25T04:11:31.963Z,94284.00
2023-05-25T04:13:59.933Z,94294.00
2023-05-25T04:16:27.122Z,94300.00
2023-05-25T04:18:56.311Z,94305.00
2023-05-25T04:21:25.459Z,94305.00
2023-05-25T04:23:54.898Z,94311.00
2023-05-25T04:26:26.336Z,94313.00
2023-05-25T04:28:55.834Z,94312.00
2023-05-25T04:31:27.843Z,94304.00
2023-05-25T04:33:56.158Z,94305.00
2023-05-25T04:36:23.769Z,94303.00
2023-05-25T04:38:54.840Z,94313.00
2023-05-25T04:41:25.838Z,94312.00
2023-05-25T04:44:09.091Z,94303.00
2023-05-25T04:46:40.728Z,94312.00
2023-05-25T04:49:10.629Z,94318.00
2023-05-25T04:51:44.971Z,94313.00
2023-05-25T04:54:11.893Z,94316.00
2023-05-25T04:56:43.978Z,94313.00
2023-05-25T04:59:11.331Z,94322.00
2023-05-25T05:01:44.578Z,94321.00
2023-05-25T05:04:11.879Z,94319.00
2023-05-25T05:06:44.335Z,94314.00
2023-05-25T05:09:14.355Z,94324.00
2023-05-25T05:11:41.263Z,94322.00
2023-05-25T05:14:12.745Z,94313.00
2023-05-25T05:16:44.430Z,94319.00
2023-05-25T05:19:11.461Z,94321.00
2023-05-25T05:21:38.538Z,94317.00
2023-05-25T05:24:05.801Z,94315.00
2023-05-25T05:26:44.219Z,94315.00
2023-05-25T05:29:20.000Z,94317.00
2023-05-25T05:31:47.017Z,94325.00
2023-05-25T05:34:14.047Z,94324.00
2023-05-25T05:36:56.473Z,94330.00
2023-05-25T05:39:24.761Z,94323.00
2023-05-25T05:41:54.664Z,94328.00
2023-05-25T05:44:29.043Z,94332.00
2023-05-25T05:47:01.158Z,94328.00
2023-05-25T05:49:32.174Z,94321.00
2023-05-25T05:51:59.362Z,94312.00
2023-05-25T05:54:28.049Z,94314.00
2023-05-25T05:56:55.167Z,94323.00
2023-05-25T05:59:22.752Z,94320.00
2023-05-25T06:01:49.728Z,94320.00
2023-05-25T06:04:19.243Z,94321.00
2023-05-25T06:06:46.307Z,94324.00
2023-05-25T06:09:18.128Z,94320.00
2023-05-25T06:11:48.116Z,94330.00
2023-05-25T06:14:17.741Z,94320.00
2023-05-25T06:16:47.060Z,94339.00
2023-05-25T06:19:16.656Z,94328.00
2023-05-25T06:21:46.651Z,94334.00
2023-05-25T06:24:16.003Z,94325.00
2023-05-25T06:26:42.949Z,94332.00
2023-05-25T06:29:09.949Z,94336.00
2023-05-25T06:31:37.078Z,94340.00
2023-05-25T06:34:06.426Z,94332.00
2023-05-25T06:36:33.365Z,94341.00
2023-05-25T06:39:00.293Z,94345.00
2023-05-25T06:41:30.867Z,94340.00
2023-05-25T06:43:57.800Z,94344.00
2023-05-25T06:46:32.877Z,94341.00
2023-05-25T06:49:03.609Z,94337.00
2023-05-25T06:51:31.167Z,94346.00
2023-05-25T06:54:00.396Z,94355.00
2023-05-25T06:56:28.019Z,94356.00
2023-05-25T06:58:57.121Z,94365.00
2023-05-25T07:01:24.105Z,94360.00
2023-05-25T07:03:53.102Z,94368.00
2023-05-25T07:06:23.727Z,94371.00
2023-05-25T07:08:55.718Z,94376.00
2023-05-25T07:11:23.305Z,94376.00
2023-05-25T07:13:54.680Z,94366.00
2023-05-25T07:16:21.686Z,94370.00
2023-05-25T07:18:51.227Z,94365.00
2023-05-25T07:21:18.202Z,94368.00
2023-05-25T07:23:45.170Z,94369.00
2023-05-25T07:26:13.650Z,94383.00
2023-05-25T07:28:40.733Z,94389.00
2023-05-25T07:31:12.055Z,94388.00
2023-05-25T07:33:41.330Z,94392.00
2023-05-25T07:36:09.936Z,94394.00
2023-05-25T07:38:37.234Z,94388.00
2023-05-25T07:41:04.215Z,94395.00
2023-05-25T07:43:33.249Z,94404.00
2023-05-25T07:46:04.145Z,94404.00
2023-05-25T07:48:33.664Z,94408.00
2023-05-25T07:51:00.816Z,94409.00
2023-05-25T07:53:29.916Z,94413.00
2023-05-25T07:55:59.829Z,94411.00
2023-05-25T07:58:26.760Z,94414.00
2023-05-25T08:00:53.859Z,94416.00
2023-05-25T08:03:31.810Z,94413.00
2023-05-25T08:06:09.486Z,94418.00
2023-05-25T08:08:37.327Z,94413.00
2023-05-25T08:11:04.348Z,94423.00
2023-05-25T08:13:31.488Z,94417.00
2023-05-25T08:16:05.450Z,94413.00
2023-05-25T08:18:32.445Z,94418.00
2023-05-25T08:20:59.471Z,94416.00
2023-05-25T08:23:26.349Z,94415.00
2023-05-25T08:25:58.332Z,94416.00
2023-05-25T08:28:25.244Z,94419.00
2023-05-25T08:30:54.341Z,94429.00
2023-05-25T08:33:21.535Z,94422.00
2023-05-25T08:35:50.419Z,94429.00
2023-05-25T08:38:19.946Z,94425.00
2023-05-25T08:40:56.054Z,94443.00
2023-05-25T08:43:26.008Z,94449.00
2023-05-25T08:45:58.370Z,94446.00
2023-05-25T08:48:39.920Z,94444.00
2023-05-25T08:51:11.715Z,94447.00
2023-05-25T08:53:41.572Z,94449.00
2023-05-25T08:56:18.455Z,94456.00
2023-05-25T08:58:58.192Z,94454.00
2023-05-25T09:01:29.038Z,94459.00
2023-05-25T09:04:00.208Z,94456.00
2023-05-25T09:06:28.270Z,94460.00
2023-05-25T09:08:55.360Z,94458.00
2023-05-25T09:11:36.098Z,94466.00
2023-05-25T09:14:04.945Z,94454.00
2023-05-25T09:16:37.246Z,94458.00
2023-05-25T09:19:06.880Z,94469.00
2023-05-25T09:21:33.841Z,94473.00
2023-05-25T09:24:01.645Z,94479.00
2023-05-25T09:26:28.731Z,94474.00
2023-05-25T09:29:00.504Z,94493.00
2023-05-25T09:31:31.629Z,94497.00
2023-05-25T09:34:01.417Z,94503.00
2023-05-25T09:36:28.455Z,94505.00
2023-05-25T09:38:56.614Z,94508.00
2023-05-25T09:41:27.537Z,94507.00
2023-05-25T09:44:09.759Z,94507.00
2023-05-25T09:46:41.212Z,94511.00
2023-05-25T09:49:11.535Z,94509.00
2023-05-25T09:51:40.886Z,94515.00
2023-05-25T09:54:12.981Z,94508.00
2023-05-25T09:56:43.063Z,94512.00
2023-05-25T09:59:12.515Z,94504.00
2023-05-25T10:01:45.010Z,94515.00
2023-05-25T10:04:16.265Z,94521.00
2023-05-25T10:06:45.826Z,94514.00
2023-05-25T10:09:14.649Z,94522.00
2023-05-25T10:11:46.291Z,94515.00
2023-05-25T10:14:33.356Z,94527.00
2023-05-25T10:17:06.956Z,94517.00
2023-05-25T10:19:42.810Z,94524.00
2023-05-25T10:22:50.165Z,94513.00
2023-05-25T10:25:28.888Z,94521.00
2023-05-25T10:28:00.873Z,94505.00
2023-05-25T10:30:28.279Z,94516.00
2023-05-25T10:32:59.235Z,94522.00
2023-05-25T10:35:26.491Z,94509.00
2023-05-25T10:37:54.867Z,94519.00
2023-05-25T10:40:23.139Z,94514.00
2023-05-25T10:42:51.857Z,94511.00
2023-05-25T10:45:24.747Z,94509.00
2023-05-25T10:47:52.012Z,94513.00
2023-05-25T10:50:29.652Z,94522.00
2023-05-25T10:53:16.125Z,94517.00
2023-05-25T10:55:52.211Z,94519.00
2023-05-25T10:58:21.663Z,94516.00
2023-05-25T11:01:06.941Z,94515.00
2023-05-25T11:03:55.706Z,94508.00
2023-05-25T11:06:46.667Z,94514.00
2023-05-25T11:09:27.552Z,94514.00
2023-05-25T11:11:56.170Z,94509.00
2023-05-25T11:14:33.211Z,94513.00
2023-05-25T11:17:14.795Z,94521.00
2023-05-25T11:19:52.464Z,94518.00
2023-05-25T11:22:31.001Z,94510.00
2023-05-25T11:25:02.341Z,94515.00
2023-05-25T11:27:32.719Z,94505.00
2023-05-25T11:30:00.506Z,94508.00
2023-05-25T11:32:28.968Z,94508.00
2023-05-25T11:34:58.530Z,94503.00
2023-05-25T11:37:31.387Z,94503.00
2023-05-25T11:39:58.648Z,94502.00
2023-05-25T11:42:26.526Z,94498.00
2023-05-25T11:44:56.054Z,94502.00
2023-05-25T11:47:30.191Z,94509.00
2023-05-25T11:49:58.688Z,94503.00
2023-05-25T11:52:32.626Z,94508.00
2023-05-25T11:54:59.627Z,94502.00
2023-05-25T11:57:28.832Z,94508.00
2023-05-25T12:00:00.331Z,94513.00
2023-05-25T12:02:29.885Z,94506.00
2023-05-25T12:05:03.619Z,94507.00
2023-05-25T12:07:34.919Z,94510.00
2023-05-25T12:10:09.203Z,94503.00
2023-05-25T12:12:44.833Z,94505.00
2023-05-25T12:15:18.250Z,94503.00
2023-05-25T12:17:47.594Z,94510.00
2023-05-25T12:20:16.970Z,94510.00
2023-05-25T12:22:47.562Z,94518.00
2023-05-25T12:25:21.974Z,94515.00
2023-05-25T12:27:49.073Z,94513.00
2023-05-25T12:30:16.756Z,94521.00
2023-05-25T12:33:03.843Z,94510.00
2023-05-25T12:35:53.642Z,94506.00
2023-05-25T12:38:24.050Z,94501.00
2023-05-25T12:41:07.521Z,94502.00
2023-05-25T12:43:44.186Z,94498.00
2023-05-25T12:46:11.649Z,94488.00
2023-05-25T12:48:38.709Z,94504.00
2023-05-25T12:51:09.944Z,94507.00
2023-05-25T12:53:52.661Z,94503.00
2023-05-25T12:56:22.669Z,94510.00
2023-05-25T12:58:49.611Z,94501.00
2023-05-25T13:01:19.742Z,94513.00
2023-05-25T13:03:46.677Z,94514.00
2023-05-25T13:06:16.232Z,94517.00
2023-05-25T13:08:43.180Z,94517.00
2023-05-25T13:11:10.205Z,94517.00
2023-05-25T13:13:37.437Z,94517.00
2023-05-25T13:16:04.595Z,94520.00
2023-05-25T13:18:32.154Z,94513.00
2023-05-25T13:20:59.416Z,94512.00
2023-05-25T13:23:28.968Z,94509.00
2023-05-25T13:25:55.906Z,94503.00
2023-05-25T13:28:27.659Z,94506.00
2023-05-25T13:30:54.664Z,94497.00
2023-05-25T13:33:23.962Z,94502.00
2023-05-25T13:36:07.839Z,94503.00
2023-05-25T13:38:38.327Z,94500.00
2023-05-25T13:41:08.341Z,94497.00
2023-05-25T13:43:35.298Z,94511.00
2023-05-25T13:46:10.037Z,94511.00
2023-05-25T13:48:47.372Z,94508.00
2023-05-25T13:51:17.477Z,94504.00
2023-05-25T13:53:48.922Z,94511.00
2023-05-25T13:56:20.502Z,94516.00
2023-05-25T13:58:47.418Z,94520.00
2023-05-25T14:01:14.360Z,94511.00
2023-05-25T14:03:41.516Z,94517.00
2023-05-25T14:06:08.557Z,94513.00
2023-05-25T14:08:35.478Z,94522.00
2023-05-25T14:11:04.896Z,94517.00
2023-05-25T14:13:36.169Z,94520.00
2023-05-25T14:16:03.940Z,94517.00
2023-05-25T14:18:30.940Z,94522.00
2023-05-25T14:20:58.085Z,94522.00
2023-05-25T14:23:25.051Z,94522.00
2023-05-25T14:25:51.998Z,94511.00
2023-05-25T14:28:18.972Z,94515.00
2023-05-25T14:30:48.894Z,94518.00
2023-05-25T14:33:18.263Z,94515.00
2023-05-25T14:35:45.457Z,94518.00
2023-05-25T14:38:12.715Z,94523.00
2023-05-25T14:40:39.679Z,94519.00
2023-05-25T14:43:06.594Z,94527.00
2023-05-25T14:45:38.119Z,94529.00
2023-05-25T14:48:16.047Z,94533.00
2023-05-25T14:50:44.656Z,94531.00
2023-05-25T14:53:13.981Z,94529.00
2023-05-25T14:55:43.252Z,94536.00
2023-05-25T14:58:11.122Z,94540.00
2023-05-25T15:00:42.662Z,94535.00
2023-05-25T15:03:11.976Z,94542.00
2023-05-25T15:05:38.944Z,94542.00
2023-05-25T15:08:08.277Z,94539.00
2023-05-25T15:10:37.422Z,94534.00
2023-05-25T15:13:04.330Z,94534.00
2023-05-25T15:15:31.259Z,94530.00
2023-05-25T15:17:58.235Z,94534.00
2023-05-25T15:20:27.307Z,94530.00
2023-05-25T15:22:54.356Z,94540.00
2023-05-25T15:25:35.086Z,94542.00
2023-05-25T15:28:03.398Z,94537.00
2023-05-25T15:30:30.484Z,94536.00
2023-05-25T15:32:57.418Z,94536.00
2023-05-25T15:35:30.941Z,94538.00
2023-05-25T15:38:01.772Z,94536.00
2023-05-25T15:40:28.848Z,94538.00
2023-05-25T15:42:58.259Z,94533.00
2023-05-25T15:45:26.195Z,94538.00
2023-05-25T15:47:55.982Z,94545.00
2023-05-25T15:50:25.022Z,94535.00
2023-05-25T15:52:52.028Z,94538.00
2023-05-25T15:55:19.046Z,94545.00
2023-05-25T15:57:45.983Z,94550.00
2023-05-25T16:00:17.499Z,94545.00
2023-05-25T16:02:44.532Z,94542.00
2023-05-25T16:05:11.481Z,94543.00
2023-05-25T16:07:38.446Z,94548.00
2023-05-25T16:10:06.126Z,94551.00
2023-05-25T16:12:37.591Z,94556.00
2023-05-25T16:15:04.991Z,94559.00
2023-05-25T16:17:33.925Z,94551.00
2023-05-25T16:20:00.940Z,94551.00
2023-05-25T16:22:27.926Z,94549.00
2023-05-25T16:24:57.206Z,94555.00
2023-05-25T16:27:24.260Z,94557.00
2023-05-25T16:29:51.293Z,94555.00
2023-05-25T16:32:18.276Z,94551.00
2023-05-25T16:34:47.320Z,94558.00
2023-05-25T16:37:14.250Z,94551.00
2023-05-25T16:39:41.151Z,94558.00
2023-05-25T16:42:10.680Z,94542.00
2023-05-25T16:44:40.093Z,94550.00
2023-05-25T16:47:07.089Z,94548.00
2023-05-25T16:49:34.043Z,94545.00
2023-05-25T16:52:03.542Z,94546.00
2023-05-25T16:54:33.178Z,94543.00
2023-05-25T16:57:03.141Z,94549.00
2023-05-25T16:59:30.318Z,94537.00
2023-05-25T17:01:57.616Z,94546.00
2023-05-25T17:04:24.658Z,94544.00
2023-05-25T17:06:51.505Z,94544.00
2023-05-25T17:09:18.443Z,94552.00
2023-05-25T17:11:45.359Z,94558.00
2023-05-25T17:14:12.728Z,94550.00
2023-05-25T17:16:41.973Z,94555.00
2023-05-25T17:19:11.222Z,94557.00
2023-05-25T17:21:38.476Z,94555.00
2023-05-25T17:24:08.651Z,94553.00
2023-05-25T17:26:35.596Z,94561.00
2023-05-25T17:29:02.600Z,94561.00
2023-05-25T17:31:29.481Z,94567.00
2023-05-25T17:33:56.823Z,94572.00
2023-05-25T17:36:26.163Z,94562.00
2023-05-25T17:38:53.162Z,94565.00
2023-05-25T17:41:20.062Z,94575.00
2023-05-25T17:43:49.426Z,94574.00
2023-05-25T17:46:17.465Z,94581.00
2023-05-25T17:48:46.706Z,94575.00
2023-05-25T17:51:16.437Z,94571.00
2023-05-25T17:53:45.581Z,94575.00
2023-05-25T17:56:12.761Z,94573.00
2023-05-25T17:58:39.656Z,94583.00
2023-05-25T18:01:06.752Z,94585.00
2023-05-25T18:03:33.871Z,94586.00
2023-05-25T18:06:05.596Z,94591.00
2023-05-25T18:08:32.505Z,94595.00
2023-05-25T18:10:59.451Z,94595.00
2023-05-25T18:13:26.509Z,94593.00
2023-05-25T18:15:53.690Z,94595.00
2023-05-25T18:18:23.219Z,94599.00
2023-05-25T18:20:52.453Z,94597.00
2023-05-25T18:23:22.447Z,94601.00
2023-05-25T18:25:52.711Z,94566.00
2023-05-25T18:28:19.679Z,94593.00
2023-05-25T18:30:46.670Z,94593.00
2023-05-25T18:33:13.836Z,94591.00
2023-05-25T18:35:40.804Z,94599.00
2023-05-25T18:38:10.072Z,94595.00
2023-05-25T18:40:37.050Z,94597.00
2023-05-25T18:43:04.633Z,94597.00
2023-05-25T18:45:34.756Z,94594.00
2023-05-25T18:48:07.531Z,94605.00
2023-05-25T18:50:39.322Z,94599.00
2023-05-25T18:53:10.678Z,94600.00
2023-05-25T18:55:40.450Z,94596.00
2023-05-25T18:58:12.252Z,94599.00
2023-05-25T19:00:41.486Z,94602.00
2023-05-25T19:03:08.529Z,94609.00
2023-05-25T19:05:35.637Z,94607.00
2023-05-25T19:08:04.897Z,94597.00
2023-05-25T19:10:31.819Z,94610.00
2023-05-25T19:12:58.724Z,94609.00
2023-05-25T19:15:27.747Z,94615.00
2023-05-25T19:17:57.296Z,94612.00
2023-05-25T19:20:24.565Z,94616.00
2023-05-25T19:22:53.635Z,94617.00
2023-05-25T19:25:20.681Z,94622.00
2023-05-25T19:27:47.646Z,94622.00
2023-05-25T19:30:14.685Z,94618.00
2023-05-25T19:32:44.170Z,94625.00
2023-05-25T19:35:13.272Z,94625.00
2023-05-25T19:37:41.303Z,94635.00
2023-05-25T19:40:12.532Z,94634.00
2023-05-25T19:42:39.393Z,94645.00
2023-05-25T19:45:09.024Z,94637.00
2023-05-25T19:47:36.040Z,94638.00
2023-05-25T19:50:05.408Z,94643.00
2023-05-25T19:52:32.345Z,94647.00
2023-05-25T19:54:59.289Z,94648.00
2023-05-25T19:57:27.584Z,94654.00
2023-05-25T19:59:59.101Z,94660.00
2023-05-25T20:02:29.712Z,94658.00
2023-05-25T20:04:59.102Z,94665.00
2023-05-25T20:07:28.664Z,94661.00
2023-05-25T20:09:57.759Z,94659.00
2023-05-25T20:12:24.752Z,94663.00
2023-05-25T20:14:51.914Z,94665.00
2023-05-25T20:17:21.456Z,94672.00
2023-05-25T20:19:53.924Z,94670.00
2023-05-25T20:22:21.400Z,94671.00
2023-05-25T20:24:51.257Z,94679.00
2023-05-25T20:27:18.192Z,94672.00
2023-05-25T20:29:49.979Z,94672.00
2023-05-25T20:32:16.883Z,94673.00
2023-05-25T20:34:46.855Z,94674.00
2023-05-25T20:37:13.805Z,94674.00
2023-05-25T20:39:43.361Z,94676.00
2023-05-25T20:42:14.777Z,94679.00
2023-05-25T20:44:43.783Z,94668.00
2023-05-25T20:47:10.764Z,94673.00
2023-05-25T20:49:40.243Z,94671.00
2023-05-25T20:52:07.227Z,94674.00
2023-05-25T20:54:37.331Z,94669.00
2023-05-25T20:57:04.937Z,94685.00
2023-05-25T20:59:34.393Z,94670.00
2023-05-25T21:02:02.869Z,94677.00
2023-05-25T21:04:31.850Z,94668.00
2023-05-25T21:06:59.051Z,94674.00
2023-05-25T21:09:26.134Z,94664.00
2023-05-25T21:11:53.093Z,94670.00
2023-05-25T21:14:22.093Z,94664.00
2023-05-25T21:16:50.076Z,94664.00
2023-05-25T21:19:17.326Z,94667.00
2023-05-25T21:21:44.451Z,94673.00
2023-05-25T21:24:11.455Z,94663.00
2023-05-25T21:26:41.722Z,94665.00
2023-05-25T21:29:08.731Z,94667.00
2023-05-25T21:31:38.032Z,94659.00
2023-05-25T21:34:07.280Z,94667.00
2023-05-25T21:36:34.206Z,94669.00
2023-05-25T21:39:05.700Z,94678.00
2023-05-25T21:41:32.622Z,94678.00
2023-05-25T21:43:59.535Z,94681.00
2023-05-25T21:46:26.587Z,94676.00
2023-05-25T21:48:53.494Z,94679.00
2023-05-25T21:51:20.559Z,94676.00
2023-05-25T21:53:47.423Z,94674.00
2023-05-25T21:56:14.417Z,94673.00
2023-05-25T21:58:43.686Z,94671.00
2023-05-25T22:01:10.970Z,94670.00
2023-05-25T22:03:38.100Z,94673.00
2023-05-25T22:06:05.244Z,94671.00
2023-05-25T22:08:40.506Z,94670.00
2023-05-25T22:11:07.694Z,94673.00
2023-05-25T22:13:37.033Z,94677.00
2023-05-25T22:16:04.036Z,94675.00
2023-05-25T22:18:33.580Z,94646.00
2023-05-25T22:21:01.497Z,94676.00
2023-05-25T22:23:28.470Z,94679.00
2023-05-25T22:25:55.968Z,94677.00
2023-05-25T22:28:22.875Z,94661.00
2023-05-25T22:30:50.086Z,94679.00
2023-05-25T22:33:17.094Z,94673.00
2023-05-25T22:35:44.605Z,94675.00
2023-05-25T22:38:14.210Z,94675.00
2023-05-25T22:40:47.378Z,94669.00
2023-05-25T22:43:14.954Z,94679.00
2023-05-25T22:45:42.133Z,94684.00
2023-05-25T22:48:09.593Z,94691.00
2023-05-25T22:50:38.086Z,94683.00
2023-05-25T22:53:05.307Z,94674.00
2023-05-25T22:55:32.668Z,94682.00
2023-05-25T22:58:02.079Z,94674.00
2023-05-25T23:00:28.967Z,94675.00
2023-05-25T23:02:56.175Z,94666.00
2023-05-25T23:05:25.754Z,94671.00
2023-05-25T23:07:55.589Z,94677.00
2023-05-25T23:10:22.508Z,94677.00
2023-05-25T23:12:50.382Z,94676.00
2023-05-25T23:15:18.537Z,94680.00
2023-05-25T23:17:45.613Z,94685.00
2023-05-25T23:20:12.944Z,94674.00
2023-05-25T23:22:40.592Z,94684.00
2023-05-25T23:25:08.443Z,94682.00
2023-05-25T23:27:35.474Z,94675.00
2023-05-25T23:30:06.015Z,94679.00
2023-05-25T23:32:38.502Z,94675.00
2023-05-25T23:35:09.430Z,94678.00
2023-05-25T23:37:39.410Z,94679.00
2023-05-25T23:40:07.846Z,94678.00
2023-05-25T23:42:39.761Z,94671.00
2023-05-25T23:45:10.258Z,94673.00
2023-05-25T23:47:39.452Z,94683.00
2023-05-25T23:50:06.936Z,94679.00
2023-05-25T23:52:36.105Z,94683.00
2023-05-25T23:55:03.703Z,94681.00
2023-05-25T23:57:33.207Z,94679.00
